sensor_id;sensor_type;location;lat;lon;timestamp;P1;durP1;ratioP1;P2;durP2;ratioP2
55346;SDS011;41218;55.700;38.270;2022-10-23T00:02:13;19.60;;;9.23;;
55346;SDS011;41218;55.700;38.270;2022-10-23T00:07:13;33.87;;;13.23;;
55346;SDS011;41218;55.700;38.270;2022-10-23T00:12:14;33.37;;;11.60;;
55346;SDS011;41218;55.700;38.270;2022-10-23T00:17:14;24.47;;;9.90;;
55346;SDS011;41218;55.700;38.270;2022-10-23T00:22:15;22.67;;;9.40;;
55346;SDS011;41218;55.700;38.270;2022-10-23T00:27:15;18.87;;;8.33;;
55346;SDS011;41218;55.700;38.270;2022-10-23T00:32:16;22.90;;;9.10;;
55346;SDS011;41218;55.700;38.270;2022-10-23T00:37:17;18.90;;;8.20;;
55346;SDS011;41218;55.700;38.270;2022-10-23T00:42:18;17.93;;;7.87;;
55346;SDS011;41218;55.700;38.270;2022-10-23T00:47:20;19.55;;;8.13;;
55346;SDS011;41218;55.700;38.270;2022-10-23T00:52:20;17.33;;;7.40;;
55346;SDS011;41218;55.700;38.270;2022-10-23T00:57:21;22.57;;;7.70;;
55346;SDS011;41218;55.700;38.270;2022-10-23T01:02:21;22.80;;;7.67;;
55346;SDS011;41218;55.700;38.270;2022-10-23T01:07:32;16.67;;;7.33;;
55346;SDS011;41218;55.700;38.270;2022-10-23T01:29:07;17.52;;;7.03;;
55346;SDS011;41218;55.700;38.270;2022-10-23T01:34:21;14.95;;;7.22;;
55346;SDS011;41218;55.700;38.270;2022-10-23T01:39:28;17.00;;;7.22;;
55346;SDS011;41218;55.700;38.270;2022-10-23T01:44:34;20.15;;;7.82;;
55346;SDS011;41218;55.700;38.270;2022-10-23T01:49:41;18.42;;;7.25;;
55346;SDS011;41218;55.700;38.270;2022-10-23T01:54:43;15.82;;;7.05;;
55346;SDS011;41218;55.700;38.270;2022-10-23T01:59:50;14.40;;;6.57;;
55346;SDS011;41218;55.700;38.270;2022-10-23T02:05:00;13.00;;;6.10;;
55346;SDS011;41218;55.700;38.270;2022-10-23T02:10:06;17.60;;;6.60;;
55346;SDS011;41218;55.700;38.270;2022-10-23T02:16:09;15.18;;;6.60;;
55346;SDS011;41218;55.700;38.270;2022-10-23T02:21:15;14.40;;;6.10;;
55346;SDS011;41218;55.700;38.270;2022-10-23T02:26:23;15.32;;;6.47;;
55346;SDS011;41218;55.700;38.270;2022-10-23T02:31:27;13.82;;;6.30;;
55346;SDS011;41218;55.700;38.270;2022-10-23T02:36:28;13.27;;;6.30;;
55346;SDS011;41218;55.700;38.270;2022-10-23T03:07:25;13.60;;;6.32;;
55346;SDS011;41218;55.700;38.270;2022-10-23T03:12:26;14.20;;;5.77;;
55346;SDS011;41218;55.700;38.270;2022-10-23T03:17:26;16.43;;;6.60;;
55346;SDS011;41218;55.700;38.270;2022-10-23T03:22:27;12.93;;;5.40;;
55346;SDS011;41218;55.700;38.270;2022-10-23T03:27:27;18.40;;;6.30;;
55346;SDS011;41218;55.700;38.270;2022-10-23T03:32:28;14.90;;;6.07;;
55346;SDS011;41218;55.700;38.270;2022-10-23T03:37:29;16.23;;;6.47;;
55346;SDS011;41218;55.700;38.270;2022-10-23T03:42:29;14.03;;;6.07;;
55346;SDS011;41218;55.700;38.270;2022-10-23T03:47:30;13.90;;;6.27;;
55346;SDS011;41218;55.700;38.270;2022-10-23T03:52:31;13.60;;;5.68;;
55346;SDS011;41218;55.700;38.270;2022-10-23T03:57:32;18.27;;;6.60;;
55346;SDS011;41218;55.700;38.270;2022-10-23T04:02:32;15.27;;;6.63;;
55346;SDS011;41218;55.700;38.270;2022-10-23T04:07:33;15.05;;;6.75;;
55346;SDS011;41218;55.700;38.270;2022-10-23T04:12:34;17.57;;;7.10;;
55346;SDS011;41218;55.700;38.270;2022-10-23T04:17:34;17.50;;;7.00;;
55346;SDS011;41218;55.700;38.270;2022-10-23T04:22:35;16.50;;;7.63;;
55346;SDS011;41218;55.700;38.270;2022-10-23T04:27:35;17.20;;;6.30;;
55346;SDS011;41218;55.700;38.270;2022-10-23T04:32:36;20.50;;;6.97;;
55346;SDS011;41218;55.700;38.270;2022-10-23T04:37:36;18.90;;;6.97;;
55346;SDS011;41218;55.700;38.270;2022-10-23T04:42:37;18.50;;;7.20;;
55346;SDS011;41218;55.700;38.270;2022-10-23T04:47:37;20.80;;;7.17;;
55346;SDS011;41218;55.700;38.270;2022-10-23T04:52:38;15.67;;;6.57;;
55346;SDS011;41218;55.700;38.270;2022-10-23T04:57:38;15.37;;;6.77;;
55346;SDS011;41218;55.700;38.270;2022-10-23T05:02:39;16.13;;;6.72;;
55346;SDS011;41218;55.700;38.270;2022-10-23T05:07:40;20.07;;;7.07;;
55346;SDS011;41218;55.700;38.270;2022-10-23T05:12:40;18.17;;;7.30;;
55346;SDS011;41218;55.700;38.270;2022-10-23T05:17:41;16.27;;;6.60;;
55346;SDS011;41218;55.700;38.270;2022-10-23T05:22:45;14.48;;;6.45;;
55346;SDS011;41218;55.700;38.270;2022-10-23T05:27:49;19.42;;;7.43;;
55346;SDS011;41218;55.700;38.270;2022-10-23T05:32:51;18.77;;;6.38;;
55346;SDS011;41218;55.700;38.270;2022-10-23T05:37:52;21.87;;;8.37;;
55346;SDS011;41218;55.700;38.270;2022-10-23T05:42:54;17.00;;;6.50;;
55346;SDS011;41218;55.700;38.270;2022-10-23T05:47:55;16.97;;;7.53;;
55346;SDS011;41218;55.700;38.270;2022-10-23T05:52:55;15.70;;;6.20;;
55346;SDS011;41218;55.700;38.270;2022-10-23T05:57:56;16.53;;;7.37;;
55346;SDS011;41218;55.700;38.270;2022-10-23T06:03:00;21.63;;;7.70;;
55346;SDS011;41218;55.700;38.270;2022-10-23T06:08:01;20.20;;;7.78;;
55346;SDS011;41218;55.700;38.270;2022-10-23T06:13:01;16.47;;;6.93;;
55346;SDS011;41218;55.700;38.270;2022-10-23T06:18:02;17.53;;;7.47;;
55346;SDS011;41218;55.700;38.270;2022-10-23T06:23:04;17.38;;;7.65;;
55346;SDS011;41218;55.700;38.270;2022-10-23T06:28:05;16.30;;;7.75;;
55346;SDS011;41218;55.700;38.270;2022-10-23T06:33:05;18.50;;;8.27;;
55346;SDS011;41218;55.700;38.270;2022-10-23T06:38:06;18.60;;;7.53;;
55346;SDS011;41218;55.700;38.270;2022-10-23T06:43:08;20.95;;;7.70;;
55346;SDS011;41218;55.700;38.270;2022-10-23T06:48:08;20.53;;;8.50;;
55346;SDS011;41218;55.700;38.270;2022-10-23T06:53:09;20.13;;;8.07;;
55346;SDS011;41218;55.700;38.270;2022-10-23T06:58:11;21.15;;;8.13;;
55346;SDS011;41218;55.700;38.270;2022-10-23T07:03:11;19.53;;;8.23;;
55346;SDS011;41218;55.700;38.270;2022-10-23T07:08:12;19.33;;;8.10;;
55346;SDS011;41218;55.700;38.270;2022-10-23T07:13:13;20.15;;;8.35;;
55346;SDS011;41218;55.700;38.270;2022-10-23T07:18:14;17.97;;;7.27;;
55346;SDS011;41218;55.700;38.270;2022-10-23T07:23:16;18.98;;;7.95;;
55346;SDS011;41218;55.700;38.270;2022-10-23T07:28:16;19.25;;;8.27;;
55346;SDS011;41218;55.700;38.270;2022-10-23T07:33:17;24.67;;;9.17;;
55346;SDS011;41218;55.700;38.270;2022-10-23T07:38:17;25.33;;;10.23;;
55346;SDS011;41218;55.700;38.270;2022-10-23T07:43:18;23.90;;;9.67;;
55346;SDS011;41218;55.700;38.270;2022-10-23T07:53:22;24.50;;;9.97;;
55346;SDS011;41218;55.700;38.270;2022-10-23T07:58:24;22.52;;;9.15;;
55346;SDS011;41218;55.700;38.270;2022-10-23T08:08:30;26.02;;;10.10;;
55346;SDS011;41218;55.700;38.270;2022-10-23T08:13:30;22.40;;;10.00;;
55346;SDS011;41218;55.700;38.270;2022-10-23T08:18:31;25.53;;;10.83;;
55346;SDS011;41218;55.700;38.270;2022-10-23T08:23:31;21.63;;;9.70;;
55346;SDS011;41218;55.700;38.270;2022-10-23T08:28:32;26.37;;;11.03;;
55346;SDS011;41218;55.700;38.270;2022-10-23T08:33:33;26.95;;;10.57;;
55346;SDS011;41218;55.700;38.270;2022-10-23T08:38:34;22.93;;;9.53;;
55346;SDS011;41218;55.700;38.270;2022-10-23T08:43:37;26.83;;;10.27;;
55346;SDS011;41218;55.700;38.270;2022-10-23T08:48:49;22.15;;;10.15;;
55346;SDS011;41218;55.700;38.270;2022-10-23T09:04:32;26.08;;;10.00;;
55346;SDS011;41218;55.700;38.270;2022-10-23T09:19:37;21.13;;;9.32;;
55346;SDS011;41218;55.700;38.270;2022-10-23T09:24:41;27.17;;;10.20;;
55346;SDS011;41218;55.700;38.270;2022-10-23T09:29:49;20.95;;;9.40;;
55346;SDS011;41218;55.700;38.270;2022-10-23T09:34:54;27.48;;;10.68;;
55346;SDS011;41218;55.700;38.270;2022-10-23T09:45:22;21.08;;;9.27;;
55346;SDS011;41218;55.700;38.270;2022-10-23T09:50:28;26.42;;;10.38;;
55346;SDS011;41218;55.700;38.270;2022-10-23T09:55:29;24.20;;;9.90;;
55346;SDS011;41218;55.700;38.270;2022-10-23T10:00:29;22.87;;;9.33;;
55346;SDS011;41218;55.700;38.270;2022-10-23T10:05:31;23.30;;;9.70;;
55346;SDS011;41218;55.700;38.270;2022-10-23T10:10:34;22.58;;;11.13;;
55346;SDS011;41218;55.700;38.270;2022-10-23T10:15:55;23.33;;;10.05;;
55346;SDS011;41218;55.700;38.270;2022-10-23T10:21:05;22.33;;;9.65;;
55346;SDS011;41218;55.700;38.270;2022-10-23T10:36:59;24.48;;;10.13;;
55346;SDS011;41218;55.700;38.270;2022-10-23T10:42:35;27.63;;;10.85;;
55346;SDS011;41218;55.700;38.270;2022-10-23T10:59:01;32.17;;;12.65;;
55346;SDS011;41218;55.700;38.270;2022-10-23T11:09:36;32.08;;;12.13;;
55346;SDS011;41218;55.700;38.270;2022-10-23T11:14:38;27.95;;;11.93;;
55346;SDS011;41218;55.700;38.270;2022-10-23T11:19:46;28.98;;;11.63;;
55346;SDS011;41218;55.700;38.270;2022-10-23T11:40:54;30.67;;;11.57;;
55346;SDS011;41218;55.700;38.270;2022-10-23T11:46:13;25.98;;;10.50;;
55346;SDS011;41218;55.700;38.270;2022-10-23T11:56:29;31.25;;;11.82;;
55346;SDS011;41218;55.700;38.270;2022-10-23T12:06:40;34.58;;;11.90;;
55346;SDS011;41218;55.700;38.270;2022-10-23T12:11:43;32.13;;;12.10;;
55346;SDS011;41218;55.700;38.270;2022-10-23T12:16:47;32.05;;;13.20;;
55346;SDS011;41218;55.700;38.270;2022-10-23T12:21:55;27.67;;;11.43;;
55346;SDS011;41218;55.700;38.270;2022-10-23T12:38:04;28.48;;;12.27;;
55346;SDS011;41218;55.700;38.270;2022-10-23T12:43:29;30.10;;;11.40;;
55346;SDS011;41218;55.700;38.270;2022-10-23T12:48:31;28.90;;;12.00;;
55346;SDS011;41218;55.700;38.270;2022-10-23T12:53:32;31.75;;;11.77;;
55346;SDS011;41218;55.700;38.270;2022-10-23T12:58:33;32.13;;;12.57;;
55346;SDS011;41218;55.700;38.270;2022-10-23T13:08:38;29.13;;;11.15;;
55346;SDS011;41218;55.700;38.270;2022-10-23T13:13:41;30.60;;;12.02;;
55346;SDS011;41218;55.700;38.270;2022-10-23T13:18:42;29.27;;;10.97;;
55346;SDS011;41218;55.700;38.270;2022-10-23T13:23:42;26.33;;;11.40;;
55346;SDS011;41218;55.700;38.270;2022-10-23T13:28:45;28.23;;;11.60;;
55346;SDS011;41218;55.700;38.270;2022-10-23T13:33:47;27.10;;;10.80;;
55346;SDS011;41218;55.700;38.270;2022-10-23T13:44:17;26.55;;;10.43;;
55346;SDS011;41218;55.700;38.270;2022-10-23T13:49:19;27.98;;;10.60;;
55346;SDS011;41218;55.700;38.270;2022-10-23T13:54:28;26.10;;;10.57;;
55346;SDS011;41218;55.700;38.270;2022-10-23T13:59:29;26.73;;;11.15;;
55346;SDS011;41218;55.700;38.270;2022-10-23T14:04:30;29.37;;;11.23;;
55346;SDS011;41218;55.700;38.270;2022-10-23T14:09:30;23.70;;;10.37;;
55346;SDS011;41218;55.700;38.270;2022-10-23T14:14:31;25.40;;;10.60;;
55346;SDS011;41218;55.700;38.270;2022-10-23T14:19:32;24.23;;;10.83;;
55346;SDS011;41218;55.700;38.270;2022-10-23T14:24:33;27.27;;;9.85;;
55346;SDS011;41218;55.700;38.270;2022-10-23T14:29:34;25.33;;;9.70;;
55346;SDS011;41218;55.700;38.270;2022-10-23T14:34:36;27.33;;;12.33;;
55346;SDS011;41218;55.700;38.270;2022-10-23T14:39:40;26.63;;;10.80;;
55346;SDS011;41218;55.700;38.270;2022-10-23T14:44:41;25.87;;;10.40;;
55346;SDS011;41218;55.700;38.270;2022-10-23T14:49:42;25.38;;;11.48;;
55346;SDS011;41218;55.700;38.270;2022-10-23T14:54:45;22.65;;;10.32;;
55346;SDS011;41218;55.700;38.270;2022-10-23T14:59:46;26.03;;;11.37;;
55346;SDS011;41218;55.700;38.270;2022-10-23T15:04:47;25.40;;;10.88;;
55346;SDS011;41218;55.700;38.270;2022-10-23T15:09:48;24.40;;;11.13;;
55346;SDS011;41218;55.700;38.270;2022-10-23T15:14:50;25.77;;;12.02;;
55346;SDS011;41218;55.700;38.270;2022-10-23T15:19:51;28.67;;;12.87;;
55346;SDS011;41218;55.700;38.270;2022-10-23T15:24:52;28.05;;;12.40;;
55346;SDS011;41218;55.700;38.270;2022-10-23T15:29:53;31.55;;;13.07;;
55346;SDS011;41218;55.700;38.270;2022-10-23T15:34:53;28.43;;;12.63;;
55346;SDS011;41218;55.700;38.270;2022-10-23T15:39:55;33.33;;;14.70;;
55346;SDS011;41218;55.700;38.270;2022-10-23T15:44:56;35.43;;;15.40;;
55346;SDS011;41218;55.700;38.270;2022-10-23T15:49:57;38.23;;;15.73;;
55346;SDS011;41218;55.700;38.270;2022-10-23T15:54:57;41.13;;;15.80;;
55346;SDS011;41218;55.700;38.270;2022-10-23T15:59:58;38.33;;;15.70;;
55346;SDS011;41218;55.700;38.270;2022-10-23T16:04:58;35.70;;;14.93;;
55346;SDS011;41218;55.700;38.270;2022-10-23T16:09:59;36.22;;;15.60;;
55346;SDS011;41218;55.700;38.270;2022-10-23T16:14:59;36.27;;;15.23;;
55346;SDS011;41218;55.700;38.270;2022-10-23T16:20:00;37.63;;;16.40;;
55346;SDS011;41218;55.700;38.270;2022-10-23T16:25:01;34.07;;;14.40;;
55346;SDS011;41218;55.700;38.270;2022-10-23T16:30:01;35.30;;;14.13;;
55346;SDS011;41218;55.700;38.270;2022-10-23T16:35:05;30.80;;;13.18;;
55346;SDS011;41218;55.700;38.270;2022-10-23T16:40:06;35.17;;;13.98;;
55346;SDS011;41218;55.700;38.270;2022-10-23T16:50:08;36.63;;;14.63;;
55346;SDS011;41218;55.700;38.270;2022-10-23T16:55:09;33.03;;;14.43;;
55346;SDS011;41218;55.700;38.270;2022-10-23T17:00:10;34.17;;;13.03;;
55346;SDS011;41218;55.700;38.270;2022-10-23T17:05:10;32.00;;;13.73;;
55346;SDS011;41218;55.700;38.270;2022-10-23T17:10:11;33.03;;;13.60;;
55346;SDS011;41218;55.700;38.270;2022-10-23T17:15:12;31.40;;;13.10;;
55346;SDS011;41218;55.700;38.270;2022-10-23T17:20:13;33.42;;;14.38;;
55346;SDS011;41218;55.700;38.270;2022-10-23T17:25:13;32.20;;;13.00;;
55346;SDS011;41218;55.700;38.270;2022-10-23T17:30:15;36.05;;;14.02;;
55346;SDS011;41218;55.700;38.270;2022-10-23T17:35:15;34.05;;;13.23;;
55346;SDS011;41218;55.700;38.270;2022-10-23T17:40:16;35.42;;;13.57;;
55346;SDS011;41218;55.700;38.270;2022-10-23T17:45:17;32.28;;;13.00;;
55346;SDS011;41218;55.700;38.270;2022-10-23T17:50:18;32.10;;;12.93;;
55346;SDS011;41218;55.700;38.270;2022-10-23T17:55:19;32.63;;;13.37;;
55346;SDS011;41218;55.700;38.270;2022-10-23T18:00:19;35.73;;;13.00;;
55346;SDS011;41218;55.700;38.270;2022-10-23T18:05:20;30.45;;;13.25;;
55346;SDS011;41218;55.700;38.270;2022-10-23T18:10:21;28.83;;;13.02;;
55346;SDS011;41218;55.700;38.270;2022-10-23T18:15:22;28.50;;;12.07;;
55346;SDS011;41218;55.700;38.270;2022-10-23T18:20:23;31.80;;;12.10;;
55346;SDS011;41218;55.700;38.270;2022-10-23T18:25:23;30.73;;;12.67;;
55346;SDS011;41218;55.700;38.270;2022-10-23T18:30:24;31.50;;;12.63;;
55346;SDS011;41218;55.700;38.270;2022-10-23T18:35:25;30.27;;;12.00;;
55346;SDS011;41218;55.700;38.270;2022-10-23T18:40:25;29.77;;;12.10;;
55346;SDS011;41218;55.700;38.270;2022-10-23T18:45:26;27.37;;;11.90;;
55346;SDS011;41218;55.700;38.270;2022-10-23T18:50:27;29.15;;;12.15;;
55346;SDS011;41218;55.700;38.270;2022-10-23T18:55:27;29.23;;;12.33;;
55346;SDS011;41218;55.700;38.270;2022-10-23T19:00:28;33.93;;;13.00;;
55346;SDS011;41218;55.700;38.270;2022-10-23T19:05:28;29.30;;;12.10;;
55346;SDS011;41218;55.700;38.270;2022-10-23T19:10:29;26.67;;;11.53;;
55346;SDS011;41218;55.700;38.270;2022-10-23T19:15:32;27.08;;;10.95;;
55346;SDS011;41218;55.700;38.270;2022-10-23T19:20:35;27.08;;;10.90;;
55346;SDS011;41218;55.700;38.270;2022-10-23T19:25:37;27.77;;;11.75;;
55346;SDS011;41218;55.700;38.270;2022-10-23T19:30:37;29.07;;;12.23;;
55346;SDS011;41218;55.700;38.270;2022-10-23T19:35:38;27.90;;;11.35;;
55346;SDS011;41218;55.700;38.270;2022-10-23T19:40:39;27.50;;;10.37;;
55346;SDS011;41218;55.700;38.270;2022-10-23T19:45:39;31.80;;;11.43;;
55346;SDS011;41218;55.700;38.270;2022-10-23T19:50:40;29.03;;;11.67;;
55346;SDS011;41218;55.700;38.270;2022-10-23T19:55:42;25.75;;;10.90;;
55346;SDS011;41218;55.700;38.270;2022-10-23T20:00:42;27.77;;;11.43;;
55346;SDS011;41218;55.700;38.270;2022-10-23T20:05:43;29.97;;;11.70;;
55346;SDS011;41218;55.700;38.270;2022-10-23T20:10:44;27.83;;;11.23;;
55346;SDS011;41218;55.700;38.270;2022-10-23T20:15:46;28.75;;;11.95;;
55346;SDS011;41218;55.700;38.270;2022-10-23T20:20:47;31.60;;;13.03;;
55346;SDS011;41218;55.700;38.270;2022-10-23T20:25:47;31.80;;;12.10;;
55346;SDS011;41218;55.700;38.270;2022-10-23T20:30:48;33.43;;;11.93;;
55346;SDS011;41218;55.700;38.270;2022-10-23T20:35:48;30.90;;;12.17;;
55346;SDS011;41218;55.700;38.270;2022-10-23T20:40:49;31.23;;;11.70;;
55346;SDS011;41218;55.700;38.270;2022-10-23T20:45:50;28.70;;;11.33;;
55346;SDS011;41218;55.700;38.270;2022-10-23T20:50:50;32.53;;;12.23;;
55346;SDS011;41218;55.700;38.270;2022-10-23T20:55:51;33.77;;;12.03;;
55346;SDS011;41218;55.700;38.270;2022-10-23T21:00:51;28.87;;;11.27;;
55346;SDS011;41218;55.700;38.270;2022-10-23T21:05:52;29.73;;;11.07;;
55346;SDS011;41218;55.700;38.270;2022-10-23T21:10:53;25.40;;;10.88;;
55346;SDS011;41218;55.700;38.270;2022-10-23T21:15:54;30.47;;;11.00;;
55346;SDS011;41218;55.700;38.270;2022-10-23T21:20:55;28.38;;;11.40;;
55346;SDS011;41218;55.700;38.270;2022-10-23T21:25:55;28.57;;;10.80;;
55346;SDS011;41218;55.700;38.270;2022-10-23T21:31:06;26.53;;;10.30;;
55346;SDS011;41218;55.700;38.270;2022-10-23T21:36:09;27.05;;;10.65;;
55346;SDS011;41218;55.700;38.270;2022-10-23T21:41:17;23.42;;;10.30;;
55346;SDS011;41218;55.700;38.270;2022-10-23T21:46:21;27.63;;;10.52;;
55346;SDS011;41218;55.700;38.270;2022-10-23T21:51:24;25.33;;;10.48;;
55346;SDS011;41218;55.700;38.270;2022-10-23T21:56:29;24.08;;;10.45;;
55346;SDS011;41218;55.700;38.270;2022-10-23T22:01:31;25.38;;;10.40;;
55346;SDS011;41218;55.700;38.270;2022-10-23T22:06:33;28.33;;;9.43;;
55346;SDS011;41218;55.700;38.270;2022-10-23T22:11:33;27.40;;;9.67;;
55346;SDS011;41218;55.700;38.270;2022-10-23T22:16:34;25.40;;;10.60;;
55346;SDS011;41218;55.700;38.270;2022-10-23T22:21:34;25.87;;;10.47;;
55346;SDS011;41218;55.700;38.270;2022-10-23T22:26:39;25.90;;;9.90;;
55346;SDS011;41218;55.700;38.270;2022-10-23T22:31:42;22.80;;;9.90;;
55346;SDS011;41218;55.700;38.270;2022-10-23T22:36:43;27.05;;;10.73;;
55346;SDS011;41218;55.700;38.270;2022-10-23T22:41:43;21.27;;;9.23;;
55346;SDS011;41218;55.700;38.270;2022-10-23T22:46:44;23.80;;;9.77;;
55346;SDS011;41218;55.700;38.270;2022-10-23T22:51:45;19.63;;;8.68;;
55346;SDS011;41218;55.700;38.270;2022-10-23T22:56:46;24.23;;;10.03;;
55346;SDS011;41218;55.700;38.270;2022-10-23T23:01:46;19.47;;;8.27;;
55346;SDS011;41218;55.700;38.270;2022-10-23T23:06:47;18.60;;;8.25;;
55346;SDS011;41218;55.700;38.270;2022-10-23T23:11:48;17.30;;;7.03;;
55346;SDS011;41218;55.700;38.270;2022-10-23T23:16:48;19.63;;;7.50;;
55346;SDS011;41218;55.700;38.270;2022-10-23T23:21:49;17.53;;;7.20;;
55346;SDS011;41218;55.700;38.270;2022-10-23T23:26:49;18.07;;;7.37;;
55346;SDS011;41218;55.700;38.270;2022-10-23T23:31:50;11.87;;;5.63;;
55346;SDS011;41218;55.700;38.270;2022-10-23T23:36:50;19.63;;;7.73;;
55346;SDS011;41218;55.700;38.270;2022-10-23T23:41:51;16.67;;;7.70;;
55346;SDS011;41218;55.700;38.270;2022-10-23T23:46:51;20.67;;;8.00;;
55346;SDS011;41218;55.700;38.270;2022-10-23T23:51:52;18.20;;;7.63;;
55346;SDS011;41218;55.700;38.270;2022-10-23T23:56:55;16.23;;;6.70;;
